createdAt,value
2018-01-12T00:00:05.511Z,101876.02
2018-01-12T00:02:39.991Z,101872.50
2018-01-12T00:05:14.486Z,101876.56
2018-01-12T00:07:49.471Z,101881.97
2018-01-12T00:10:24.722Z,101882.48
2018-01-12T00:12:59.904Z,101874.86
2018-01-12T00:15:35.642Z,101884.64
2018-01-12T00:18:10.744Z,101885.53
2018-01-12T00:20:45.947Z,101884.23
2018-01-12T00:23:21.511Z,101882.80
2018-01-12T00:25:56.510Z,101880.92
2018-01-12T00:28:31.535Z,101873.83
2018-01-12T00:31:06.424Z,101876.40
2018-01-12T00:33:41.517Z,101874.11
2018-01-12T00:36:16.691Z,101871.30
2018-01-12T00:38:51.503Z,101872.12
2018-01-12T00:41:26.650Z,101877.91
2018-01-12T00:44:01.225Z,101879.79
2018-01-12T00:46:36.536Z,101888.69
2018-01-12T00:49:11.463Z,101883.31
2018-01-12T00:51:45.685Z,101889.98
2018-01-12T00:54:20.189Z,101890.50
2018-01-12T00:56:55.395Z,101889.13
2018-01-12T00:59:30.806Z,101897.87
2018-01-12T01:02:05.614Z,101891.98
2018-01-12T01:04:40.379Z,101890.47
2018-01-12T01:07:14.950Z,101895.27
2018-01-12T01:09:50.228Z,101903.20
2018-01-12T01:12:24.828Z,101905.47
2018-01-12T01:15:00.064Z,101910.53
2018-01-12T01:17:35.672Z,101904.81
2018-01-12T01:20:10.734Z,101911.53
2018-01-12T01:22:45.890Z,101916.87
2018-01-12T01:25:21.278Z,101922.59
2018-01-12T01:27:57.211Z,101930.09
2018-01-12T01:30:32.714Z,101928.69
2018-01-12T01:33:08.040Z,101933.06
2018-01-12T01:35:43.559Z,101938.30
2018-01-12T01:38:19.923Z,101933.89
2018-01-12T01:40:54.584Z,101935.60
2018-01-12T01:43:29.844Z,101942.28
2018-01-12T01:46:05.020Z,101938.78
2018-01-12T01:48:42.546Z,101950.67
2018-01-12T01:51:17.654Z,101955.05
2018-01-12T01:53:53.037Z,101918.44
2018-01-12T01:56:28.646Z,101949.13
2018-01-12T01:59:03.643Z,101954.95
2018-01-12T02:01:38.735Z,101959.42
2018-01-12T02:04:13.198Z,101966.58
2018-01-12T02:06:48.864Z,101967.92
2018-01-12T02:09:23.928Z,101968.40
2018-01-12T02:11:58.668Z,101964.45
2018-01-12T02:14:33.980Z,101969.35
2018-01-12T02:17:09.082Z,101968.56
2018-01-12T02:19:43.725Z,101964.55
2018-01-12T02:22:20.082Z,101968.56
2018-01-12T02:24:55.057Z,101965.58
2018-01-12T02:27:29.741Z,101964.72
2018-01-12T02:30:04.653Z,101971.84
2018-01-12T02:32:39.027Z,101968.25
2018-01-12T02:35:13.896Z,101955.95
2018-01-12T02:37:48.710Z,101966.44
2018-01-12T02:40:24.037Z,101959.83
2018-01-12T02:42:59.310Z,101959.41
2018-01-12T02:45:34.815Z,101963.80
2018-01-12T02:48:09.904Z,101968.19
2018-01-12T02:50:45.206Z,101965.14
2018-01-12T02:53:20.115Z,101970.89
2018-01-12T02:55:54.838Z,101968.94
2018-01-12T02:58:29.881Z,101969.73
2018-01-12T03:01:04.952Z,101970.91
2018-01-12T03:03:40.131Z,101974.47
2018-01-12T03:06:14.811Z,101976.21
2018-01-12T03:08:49.297Z,101975.45
2018-01-12T03:11:24.883Z,101977.37
2018-01-12T03:13:59.941Z,101974.31
2018-01-12T03:16:34.423Z,101978.36
2018-01-12T03:19:09.976Z,101977.50
2018-01-12T03:21:45.151Z,101975.38
2018-01-12T03:24:20.701Z,101983.35
2018-01-12T03:26:55.898Z,101979.69
2018-01-12T03:29:30.288Z,101973.91
2018-01-12T03:32:05.060Z,101971.61
2018-01-12T03:34:39.848Z,101975.55
2018-01-12T03:37:15.076Z,101973.73
2018-01-12T03:39:49.763Z,101970.24
2018-01-12T03:42:24.271Z,101972.57
2018-01-12T03:44:58.959Z,101973.91
2018-01-12T03:47:33.434Z,101972.57
2018-01-12T03:50:08.501Z,101973.49
2018-01-12T03:52:43.100Z,101979.44
2018-01-12T03:55:18.475Z,101983.58
2018-01-12T03:57:53.026Z,101989.08
2018-01-12T04:00:27.509Z,101990.00
2018-01-12T04:03:02.011Z,101987.74
2018-01-12T04:05:36.396Z,101988.70
2018-01-12T04:08:11.358Z,101992.70
2018-01-12T04:10:46.814Z,101996.70
2018-01-12T04:13:22.089Z,101997.66
2018-01-12T04:15:57.327Z,101993.66
2018-01-12T04:18:33.555Z,101988.86
2018-01-12T04:21:08.599Z,101991.53
2018-01-12T04:23:43.160Z,101994.61
2018-01-12T04:26:18.325Z,101994.48
2018-01-12T04:28:54.000Z,102001.53
2018-01-12T04:31:29.303Z,101995.34
2018-01-12T04:34:04.410Z,101995.81
2018-01-12T04:36:39.072Z,101997.19
2018-01-12T04:39:13.941Z,102006.14
2018-01-12T04:41:48.735Z,101999.50
2018-01-12T04:44:24.320Z,102007.98
2018-01-12T04:46:58.854Z,102013.80
2018-01-12T04:49:34.152Z,102013.33
2018-01-12T04:52:09.407Z,102008.88
2018-01-12T04:54:44.586Z,102010.66
2018-01-12T04:57:20.272Z,102006.27
2018-01-12T04:59:55.199Z,102010.63
2018-01-12T05:02:30.320Z,102013.30
2018-01-12T05:05:05.085Z,102016.00
2018-01-12T05:07:40.378Z,102017.45
2018-01-12T05:10:15.242Z,102015.73
2018-01-12T05:12:49.913Z,102019.72
2018-01-12T05:15:24.523Z,102010.72
2018-01-12T05:18:00.140Z,102011.96
2018-01-12T05:20:35.104Z,102019.78
2018-01-12T05:23:10.008Z,102018.86
2018-01-12T05:25:45.211Z,102021.05
2018-01-12T05:28:20.683Z,102020.70
2018-01-12T05:30:55.672Z,102021.62
2018-01-12T05:33:30.400Z,102022.48
2018-01-12T05:36:04.786Z,102019.78
2018-01-12T05:38:39.332Z,102018.45
2018-01-12T05:41:13.691Z,102017.11
2018-01-12T05:43:49.170Z,102026.48
2018-01-12T05:46:24.434Z,102020.32
2018-01-12T05:48:59.520Z,102018.58
2018-01-12T05:51:35.378Z,102025.75
2018-01-12T05:54:10.204Z,102029.86
2018-01-12T05:56:44.662Z,102029.86
2018-01-12T05:59:20.298Z,102034.66
2018-01-12T06:02:06.583Z,102040.44
2018-01-12T06:04:52.884Z,102032.75
2018-01-12T06:07:28.564Z,102039.71
2018-01-12T06:10:03.406Z,102042.38
2018-01-12T06:12:38.651Z,102043.23
2018-01-12T06:15:14.118Z,102039.30
2018-01-12T06:17:49.238Z,102047.05
2018-01-12T06:20:24.572Z,102054.23
2018-01-12T06:22:59.747Z,102050.23
2018-01-12T06:25:35.607Z,102052.92
2018-01-12T06:28:10.656Z,102061.41
2018-01-12T06:30:45.556Z,102063.22
2018-01-12T06:33:20.724Z,102069.45
2018-01-12T06:35:55.410Z,102066.34
2018-01-12T06:38:30.575Z,102072.53
2018-01-12T06:41:05.859Z,102071.23
2018-01-12T06:43:40.928Z,102077.02
2018-01-12T06:46:15.397Z,102077.43
2018-01-12T06:48:50.552Z,102073.45
2018-01-12T06:51:25.666Z,102080.03
2018-01-12T06:54:00.830Z,102071.45
2018-01-12T06:56:36.112Z,102070.03
2018-01-12T06:59:11.567Z,102085.22
2018-01-12T07:01:45.983Z,102085.38
2018-01-12T07:04:21.350Z,102087.25
2018-01-12T07:06:56.722Z,102086.39
2018-01-12T07:09:31.931Z,102085.11
2018-01-12T07:12:06.364Z,102090.10
2018-01-12T07:14:41.196Z,102093.98
2018-01-12T07:17:15.431Z,102101.48
2018-01-12T07:19:49.915Z,102098.88
2018-01-12T07:22:26.318Z,102100.69
2018-01-12T07:25:01.552Z,102105.55
2018-01-12T07:27:36.587Z,102118.33
2018-01-12T07:30:11.559Z,102103.59
2018-01-12T07:32:46.632Z,102104.89
2018-01-12T07:35:21.828Z,102105.31
2018-01-12T07:37:57.576Z,102109.76
2018-01-12T07:40:32.901Z,102114.59
2018-01-12T07:43:07.960Z,102113.80
2018-01-12T07:45:43.131Z,102122.72
2018-01-12T07:48:17.545Z,102128.36
2018-01-12T07:50:52.567Z,102134.91
2018-01-12T07:53:27.647Z,102130.11
2018-01-12T07:56:02.619Z,102133.31
2018-01-12T07:58:37.797Z,102147.97
2018-01-12T08:01:18.054Z,102149.27
2018-01-12T08:03:52.938Z,102153.27
2018-01-12T08:06:27.595Z,102163.48
2018-01-12T08:09:02.888Z,102167.02
2018-01-12T08:11:37.630Z,102171.43
2018-01-12T08:14:12.795Z,102170.54
2018-01-12T08:16:47.468Z,102175.52
2018-01-12T08:19:22.849Z,102177.36
2018-01-12T08:21:57.752Z,102183.80
2018-01-12T08:24:32.760Z,102180.70
2018-01-12T08:27:07.888Z,102185.12
2018-01-12T08:29:42.991Z,102183.84
2018-01-12T08:32:18.462Z,102174.48
2018-01-12T08:34:53.520Z,102186.27
2018-01-12T08:37:29.134Z,102190.21
2018-01-12T08:40:04.262Z,102191.68
2018-01-12T08:42:38.933Z,102195.67
2018-01-12T08:45:14.183Z,102190.98
2018-01-12T08:47:48.863Z,102203.11
2018-01-12T08:50:23.566Z,102199.11
2018-01-12T08:52:58.674Z,102204.55
2018-01-12T08:55:34.148Z,102199.92
2018-01-12T08:58:08.886Z,102209.36
2018-01-12T09:00:43.958Z,102215.77
2018-01-12T09:03:18.626Z,102220.83
2018-01-12T09:05:53.747Z,102228.59
2018-01-12T09:08:29.474Z,102219.72
2018-01-12T09:11:04.375Z,102224.52
2018-01-12T09:13:50.949Z,102228.88
2018-01-12T09:16:28.175Z,102233.55
2018-01-12T09:32:43.077Z,102239.66
2018-01-12T09:35:17.593Z,102245.67
2018-01-12T09:40:52.162Z,102249.66
2018-01-12T09:43:27.138Z,102249.75
2018-01-12T09:46:01.657Z,102253.11
2018-01-12T09:48:35.908Z,102241.91
2018-01-12T09:51:10.938Z,102244.16
2018-01-12T09:53:46.133Z,102255.48
2018-01-12T09:56:21.324Z,102249.25
2018-01-12T09:58:55.562Z,102256.42
2018-01-12T10:01:30.655Z,102255.62
2018-01-12T10:04:05.915Z,102259.67
2018-01-12T10:06:41.138Z,102262.77
2018-01-12T10:09:15.830Z,102264.25
2018-01-12T10:11:50.485Z,102273.34
2018-01-12T10:14:25.254Z,102274.45
2018-01-12T10:17:00.206Z,102274.17
2018-01-12T10:19:35.257Z,102274.22
2018-01-12T10:22:10.382Z,102273.02
2018-01-12T10:24:45.925Z,102264.57
2018-01-12T10:27:21.365Z,102267.13
2018-01-12T10:29:59.725Z,102268.96
2018-01-12T10:32:50.401Z,102265.62
2018-01-12T10:35:24.777Z,102263.03
2018-01-12T10:37:59.360Z,102267.64
2018-01-12T10:40:54.360Z,102267.22
2018-01-12T10:43:29.391Z,102269.31
2018-01-12T10:46:08.548Z,102269.03
2018-01-12T10:48:46.190Z,102273.27
2018-01-12T10:51:20.973Z,102275.83
2018-01-12T10:53:55.490Z,102280.44
2018-01-12T10:56:30.191Z,102269.27
2018-01-12T10:59:05.269Z,102279.36
2018-01-12T11:01:39.978Z,102268.71
2018-01-12T11:04:14.398Z,102266.72
2018-01-12T11:06:49.510Z,102274.48
2018-01-12T11:09:24.925Z,102276.23
2018-01-12T11:11:59.630Z,102277.70
2018-01-12T11:14:34.541Z,102275.89
2018-01-12T11:17:09.599Z,102269.91
2018-01-12T11:19:44.304Z,102277.02
2018-01-12T11:22:19.357Z,102274.70
2018-01-12T11:24:54.702Z,102268.70
2018-01-12T11:27:29.814Z,102276.59
2018-01-12T11:30:05.034Z,102277.95
2018-01-12T11:32:39.637Z,102270.19
2018-01-12T11:35:14.674Z,102265.77
2018-01-12T11:37:49.611Z,102266.59
2018-01-12T11:40:24.618Z,102268.33
2018-01-12T11:42:59.558Z,102262.54
2018-01-12T11:45:35.075Z,102258.70
2018-01-12T11:48:09.955Z,102253.69
2018-01-12T11:50:45.245Z,102253.67
2018-01-12T11:53:19.934Z,102248.19
2018-01-12T11:55:54.838Z,102249.20
2018-01-12T11:58:29.601Z,102247.42
2018-01-12T12:01:04.401Z,102251.93
2018-01-12T12:03:39.618Z,102257.18
2018-01-12T12:06:14.574Z,102259.49
2018-01-12T12:08:49.673Z,102260.05
2018-01-12T12:11:24.354Z,102266.22
2018-01-12T12:13:59.508Z,102263.92
2018-01-12T12:16:34.702Z,102251.58
2018-01-12T12:19:09.365Z,102262.34
2018-01-12T12:21:44.715Z,102259.16
2018-01-12T12:24:19.919Z,102260.50
2018-01-12T12:26:54.578Z,102258.94
2018-01-12T12:29:29.510Z,102258.02
2018-01-12T12:32:04.540Z,102259.27
2018-01-12T12:34:39.901Z,102264.46
2018-01-12T12:37:15.533Z,102262.69
2018-01-12T12:39:50.566Z,102260.98
2018-01-12T12:42:25.610Z,102264.19
2018-01-12T12:45:00.686Z,102259.82
2018-01-12T12:47:35.470Z,102257.32
2018-01-12T12:50:10.736Z,102257.09
2018-01-12T12:52:45.762Z,102258.13
2018-01-12T12:55:21.874Z,102251.20
2018-01-12T12:57:56.623Z,102248.70
2018-01-12T13:00:31.594Z,102249.50
2018-01-12T13:03:06.868Z,102257.51
2018-01-12T13:05:41.965Z,102264.02
2018-01-12T13:08:17.077Z,102261.43
2018-01-12T13:10:51.782Z,102257.20
2018-01-12T13:13:27.310Z,102263.79
2018-01-12T13:16:02.074Z,102262.30
2018-01-12T13:18:37.993Z,102263.80
2018-01-12T13:21:12.790Z,102264.48
2018-01-12T13:23:47.185Z,102257.32
2018-01-12T13:26:22.095Z,102251.76
2018-01-12T13:28:56.863Z,102260.71
2018-01-12T13:31:31.962Z,102264.33
2018-01-12T13:34:06.871Z,102262.85
2018-01-12T13:36:41.510Z,102259.24
2018-01-12T13:39:15.742Z,102261.10
2018-01-12T13:41:50.255Z,102263.91
2018-01-12T13:44:25.649Z,102262.95
2018-01-12T13:47:00.727Z,102260.50
2018-01-12T13:49:35.265Z,102261.55
2018-01-12T13:52:10.351Z,102260.73
2018-01-12T13:54:45.346Z,102260.42
2018-01-12T13:57:20.656Z,102254.80
2018-01-12T13:59:55.738Z,102265.30
2018-01-12T14:02:31.086Z,102264.33
2018-01-12T14:05:05.868Z,102264.56
2018-01-12T14:07:40.869Z,102269.42
2018-01-12T14:10:15.982Z,102272.43
2018-01-12T14:12:51.297Z,102273.42
2018-01-12T14:15:26.245Z,102281.48
2018-01-12T14:18:01.786Z,102279.16
2018-01-12T14:20:36.942Z,102278.39
2018-01-12T14:23:12.083Z,102275.59
2018-01-12T14:25:47.254Z,102280.31
2018-01-12T14:28:22.277Z,102289.30
2018-01-12T14:30:57.010Z,102285.16
2018-01-12T14:33:31.984Z,102292.80
2018-01-12T14:36:07.093Z,102292.28
2018-01-12T14:38:42.371Z,102292.70
2018-01-12T14:41:17.330Z,102294.64
2018-01-12T14:43:52.934Z,102286.13
2018-01-12T14:46:28.137Z,102294.45
2018-01-12T14:49:02.923Z,102293.39
2018-01-12T14:51:38.218Z,102291.50
2018-01-12T14:54:12.584Z,102295.84
2018-01-12T14:56:47.651Z,102301.20
2018-01-12T14:59:22.391Z,102301.91
2018-01-12T15:01:57.602Z,102292.81
2018-01-12T15:04:33.134Z,102294.30
2018-01-12T15:07:09.106Z,102290.59
2018-01-12T15:09:44.181Z,102293.58
2018-01-12T15:12:19.578Z,102302.95
2018-01-12T15:14:56.344Z,102355.81
2018-01-12T15:17:36.077Z,102302.12
2018-01-12T15:20:11.726Z,102302.30
2018-01-12T15:22:46.526Z,102302.36
2018-01-12T15:25:22.377Z,102310.35
2018-01-12T15:27:57.727Z,102304.50
2018-01-12T15:30:33.254Z,102309.66
2018-01-12T15:33:08.141Z,102306.22
2018-01-12T15:35:43.357Z,102310.95
2018-01-12T15:38:18.903Z,102310.25
2018-01-12T15:40:53.546Z,102306.67
2018-01-12T15:43:28.558Z,102312.34
2018-01-12T15:46:03.199Z,102305.72
2018-01-12T15:48:38.486Z,102311.73
2018-01-12T15:51:13.541Z,102309.73
2018-01-12T15:53:48.958Z,102317.77
2018-01-12T15:56:23.848Z,102304.94
2018-01-12T15:58:58.747Z,102316.45
2018-01-12T16:01:33.782Z,102319.61
2018-01-12T16:04:08.793Z,102315.98
2018-01-12T16:06:43.250Z,102315.64
2018-01-12T16:09:18.664Z,102326.23
2018-01-12T16:11:54.188Z,102324.87
2018-01-12T16:14:29.180Z,102323.16
2018-01-12T16:17:03.662Z,102328.43
2018-01-12T16:19:38.890Z,102325.05
2018-01-12T16:22:14.159Z,102322.00
2018-01-12T16:24:49.266Z,102324.30
2018-01-12T16:27:24.430Z,102323.97
2018-01-12T16:29:59.342Z,102330.69
2018-01-12T16:32:34.384Z,102323.84
2018-01-12T16:35:08.982Z,102327.84
2018-01-12T16:37:43.823Z,102327.95
2018-01-12T16:40:19.420Z,102335.06
2018-01-12T16:42:54.324Z,102333.17
2018-01-12T16:45:29.471Z,102331.13
2018-01-12T16:48:04.071Z,102331.73
2018-01-12T16:50:39.287Z,102331.19
2018-01-12T16:53:14.315Z,102333.98
2018-01-12T16:55:49.283Z,102339.71
2018-01-12T16:58:24.482Z,102331.86
2018-01-12T17:00:59.425Z,102338.70
2018-01-12T17:03:33.897Z,102342.61
2018-01-12T17:06:09.410Z,102347.30
2018-01-12T17:08:45.763Z,102347.16
2018-01-12T17:11:21.108Z,102349.31
2018-01-12T17:13:56.458Z,102348.06
2018-01-12T17:16:31.050Z,102350.41
2018-01-12T17:19:06.532Z,102348.20
2018-01-12T17:21:41.475Z,102349.56
2018-01-12T17:24:16.342Z,102354.36
2018-01-12T17:26:51.441Z,102355.97
2018-01-12T17:29:26.513Z,102348.72
2018-01-12T17:32:01.415Z,102344.51
2018-01-12T17:34:36.512Z,102335.54
2018-01-12T17:37:11.658Z,102337.66
2018-01-12T17:39:46.761Z,102347.47
2018-01-12T17:42:22.854Z,102345.17
2018-01-12T17:44:57.856Z,102349.07
2018-01-12T17:47:32.825Z,102347.70
2018-01-12T17:50:08.426Z,102343.86
2018-01-12T17:52:43.118Z,102352.89
2018-01-12T17:55:18.548Z,102351.84
2018-01-12T17:57:53.511Z,102350.89
2018-01-12T18:00:28.643Z,102355.55
2018-01-12T18:03:04.676Z,102358.50
2018-01-12T18:05:39.559Z,102354.92
2018-01-12T18:08:14.554Z,102356.11
2018-01-12T18:10:49.604Z,102354.30
2018-01-12T18:13:24.830Z,102353.02
2018-01-12T18:15:59.622Z,102349.05
2018-01-12T18:18:34.807Z,102347.97
2018-01-12T18:21:09.652Z,102346.73
2018-01-12T18:23:44.640Z,102349.82
2018-01-12T18:26:19.699Z,102344.40
2018-01-12T18:28:54.620Z,102347.34
2018-01-12T18:31:29.588Z,102352.53
2018-01-12T18:34:04.712Z,102350.41
2018-01-12T18:36:39.703Z,102359.08
2018-01-12T18:39:15.678Z,102354.17
2018-01-12T18:41:50.658Z,102359.80
2018-01-12T18:44:26.030Z,102358.38
2018-01-12T18:47:01.004Z,102358.84
2018-01-12T18:49:36.043Z,102364.99
2018-01-12T18:52:11.167Z,102361.75
2018-01-12T18:54:46.638Z,102362.69
2018-01-12T18:57:26.075Z,102373.63
2018-01-12T19:00:01.002Z,102368.20
2018-01-12T19:02:36.114Z,102368.11
2018-01-12T19:05:11.262Z,102359.69
2018-01-12T19:07:45.925Z,102361.09
2018-01-12T19:10:21.110Z,102365.07
2018-01-12T19:12:56.782Z,102364.60
2018-01-12T19:15:32.011Z,102362.89
2018-01-12T19:18:07.611Z,102372.67
2018-01-12T19:20:42.763Z,102371.91
2018-01-12T19:23:17.786Z,102353.56
2018-01-12T19:25:52.811Z,102370.40
2018-01-12T19:28:27.962Z,102364.53
2018-01-12T19:31:02.991Z,102370.30
2018-01-12T19:33:37.992Z,102374.32
2018-01-12T19:36:12.713Z,102372.85
2018-01-12T19:38:47.841Z,102375.92
2018-01-12T19:41:23.202Z,102377.67
2018-01-12T19:43:57.833Z,102383.56
2018-01-12T19:46:32.730Z,102379.12
2018-01-12T19:49:07.817Z,102385.27
2018-01-12T19:51:42.862Z,102386.44
2018-01-12T19:54:18.171Z,102390.98
2018-01-12T19:56:52.888Z,102390.94
2018-01-12T19:59:28.134Z,102389.98
2018-01-12T20:02:03.725Z,102385.73
2018-01-12T20:04:39.131Z,102390.73
2018-01-12T20:07:14.077Z,102383.50
2018-01-12T20:09:49.790Z,102386.58
2018-01-12T20:12:25.080Z,102391.47
2018-01-12T20:15:00.430Z,102385.47
2018-01-12T20:17:35.873Z,102394.27
2018-01-12T20:20:11.286Z,102393.27
2018-01-12T20:22:46.338Z,102395.86
2018-01-12T20:25:23.238Z,102391.52
2018-01-12T20:27:57.918Z,102389.89
2018-01-12T20:30:33.221Z,102387.27
2018-01-12T20:33:08.023Z,102384.23
2018-01-12T20:35:43.232Z,102388.52
2018-01-12T20:38:18.921Z,102392.76
2018-01-12T20:40:53.886Z,102389.32
2018-01-12T20:43:28.370Z,102390.64
2018-01-12T20:46:02.959Z,102396.91
2018-01-12T20:48:38.600Z,102393.00
2018-01-12T20:51:13.975Z,102394.69
2018-01-12T20:53:49.034Z,102405.32
2018-01-12T20:56:24.965Z,102394.66
2018-01-12T20:59:00.022Z,102396.52
2018-01-12T21:01:35.361Z,102395.99
2018-01-12T21:04:09.979Z,102402.75
2018-01-12T21:06:45.330Z,102393.72
2018-01-12T21:09:20.354Z,102393.13
2018-01-12T21:11:55.473Z,102395.98
2018-01-12T21:14:31.252Z,102402.70
2018-01-12T21:17:06.108Z,102397.83
2018-01-12T21:19:41.417Z,102400.51
2018-01-12T21:22:17.022Z,102405.80
2018-01-12T21:24:52.103Z,102399.06
2018-01-12T21:27:26.543Z,102395.89
2018-01-12T21:30:02.047Z,102404.33
2018-01-12T21:32:37.107Z,102404.20
2018-01-12T21:35:12.182Z,102407.76
2018-01-12T21:37:47.497Z,102398.28
2018-01-12T21:40:23.494Z,102408.03
2018-01-12T21:42:59.054Z,102407.59
2018-01-12T21:45:33.625Z,102413.30
2018-01-12T21:48:08.989Z,102409.37
2018-01-12T21:50:44.142Z,102405.80
2018-01-12T21:53:18.995Z,102404.95
2018-01-12T21:55:54.133Z,102406.27
2018-01-12T21:58:29.440Z,102403.95
2018-01-12T22:01:04.646Z,102403.58
2018-01-12T22:03:40.200Z,102411.53
2018-01-12T22:06:14.997Z,102397.36
2018-01-12T22:08:50.399Z,102399.95
2018-01-12T22:11:25.077Z,102398.05
2018-01-12T22:13:59.932Z,102409.70
2018-01-12T22:16:34.819Z,102402.88
2018-01-12T22:19:09.807Z,102395.14
2018-01-12T22:21:44.010Z,102396.77
2018-01-12T22:24:18.457Z,102402.68
2018-01-12T22:26:54.077Z,102400.09
2018-01-12T22:29:29.437Z,102394.87
2018-01-12T22:32:04.658Z,102407.73
2018-01-12T22:34:40.154Z,102404.66
2018-01-12T22:37:15.374Z,102409.17
2018-01-12T22:39:50.162Z,102407.75
2018-01-12T22:42:24.738Z,102405.95
2018-01-12T22:44:59.488Z,102396.55
2018-01-12T22:47:34.765Z,102399.24
2018-01-12T22:50:10.109Z,102399.28
2018-01-12T22:52:45.230Z,102401.53
2018-01-12T22:55:20.391Z,102401.66
2018-01-12T22:57:55.377Z,102406.71
2018-01-12T23:00:31.206Z,102396.30
2018-01-12T23:03:05.638Z,102404.17
2018-01-12T23:05:40.738Z,102399.68
2018-01-12T23:08:15.733Z,102406.48
2018-01-12T23:10:51.094Z,102407.66
2018-01-12T23:13:26.421Z,102411.48
2018-01-12T23:16:00.802Z,102402.09
2018-01-12T23:18:35.782Z,102399.00
2018-01-12T23:21:11.056Z,102397.17
2018-01-12T23:23:46.355Z,102394.64
2018-01-12T23:26:21.467Z,102408.48
2018-01-12T23:28:56.667Z,102395.59
2018-01-12T23:31:31.624Z,102403.11
2018-01-12T23:34:06.527Z,102395.94
2018-01-12T23:36:41.708Z,102398.11
2018-01-12T23:39:16.727Z,102402.48
2018-01-12T23:41:52.297Z,102398.47
2018-01-12T23:44:27.537Z,102398.04
2018-01-12T23:47:02.690Z,102396.42
2018-01-12T23:49:37.830Z,102395.48
2018-01-12T23:52:13.359Z,102397.27
2018-01-12T23:54:48.487Z,102396.33
2018-01-12T23:57:23.797Z,102402.63
2018-01-12T23:59:58.993Z,102404.67
